Time;durP1;ratioP1;P1;durP2;ratioP2;P2;SDS_P1;SDS_P2;PMS_P1;PMS_P2;Temp;Humidity;BMP_temperature;BMP_pressure;BME280_temperature;BME280_humidity;BME280_pressure;Samples;Min_cycle;Max_cycle;Signal;HPM_P1;HPM_P2
2024/01/29 00:02:03;;;;;;;12.48;5.88;;;;;;;;;;5079697;28;20050;-76
2024/01/29 00:04:28;;;;;;;15.88;5.22;;;;;;;;;;5072936;28;20032;-76
2024/01/29 00:06:53;;;;;;;12.90;5.22;;;;;;;;;;5074252;28;20114;-76
2024/01/29 00:09:19;;;;;;;14.65;5.25;;;;;;;;;;5070925;28;20040;-76
2024/01/29 00:11:45;;;;;;;13.88;5.15;;;;;;;;;;5071585;28;20029;-76
2024/01/29 00:14:10;;;;;;;17.35;5.88;;;;;;;;;;5070918;28;20119;-76
2024/01/29 00:16:35;;;;;;;13.35;5.13;;;;;;;;;;5076634;28;20032;-76
2024/01/29 00:19:00;;;;;;;16.27;5.22;;;;;;;;;;5070817;28;20036;-76
2024/01/29 00:21:26;;;;;;;12.75;5.03;;;;;;;;;;5071135;28;20024;-76
2024/01/29 00:23:51;;;;;;;16.38;5.25;;;;;;;;;;5070980;28;20605;-76
2024/01/29 00:26:17;;;;;;;15.75;5.70;;;;;;;;;;5077299;28;20462;-76
2024/01/29 00:28:42;;;;;;;16.08;6.07;;;;;;;;;;5071165;28;20063;-76
2024/01/29 00:31:07;;;;;;;14.65;6.03;;;;;;;;;;5068883;28;20072;-76
2024/01/29 00:33:32;;;;;;;13.57;5.82;;;;;;;;;;5076024;28;20445;-76
2024/01/29 00:35:57;;;;;;;14.15;6.30;;;;;;;;;;5078281;28;20574;-76
2024/01/29 00:38:23;;;;;;;12.50;6.10;;;;;;;;;;5071607;28;20079;-76
2024/01/29 00:40:48;;;;;;;14.77;5.05;;;;;;;;;;5075930;28;20063;-76
2024/01/29 00:43:13;;;;;;;11.48;4.95;;;;;;;;;;5070360;28;20024;-76
2024/01/29 00:45:38;;;;;;;15.95;7.70;;;;;;;;;;5075094;28;20039;-76
2024/01/29 00:48:03;;;;;;;13.15;5.38;;;;;;;;;;5070580;28;20036;-76
2024/01/29 00:50:29;;;;;;;14.85;5.50;;;;;;;;;;5070134;28;20398;-76
2024/01/29 00:52:54;;;;;;;17.90;5.90;;;;;;;;;;5070621;28;20039;-76
2024/01/29 00:55:19;;;;;;;14.68;5.38;;;;;;;;;;5075963;28;20111;-76
2024/01/29 00:57:44;;;;;;;15.68;7.03;;;;;;;;;;5075833;28;20477;-76
2024/01/29 01:00:10;;;;;;;15.63;5.30;;;;;;;;;;5072644;28;20028;-76
2024/01/29 01:02:35;;;;;;;14.25;7.03;;;;;;;;;;5077050;28;20039;-77
2024/01/29 01:05:01;;;;;;;14.30;5.90;;;;;;;;;;5079718;28;20107;-76
2024/01/29 01:07:27;;;;;;;14.52;5.65;;;;;;;;;;5076243;28;20476;-76
2024/01/29 01:09:52;;;;;;;17.38;6.05;;;;;;;;;;5074803;28;20033;-76
2024/01/29 01:12:17;;;;;;;13.85;5.43;;;;;;;;;;5070367;28;20504;-76
2024/01/29 01:14:42;;;;;;;16.85;6.47;;;;;;;;;;5072781;28;20054;-76
2024/01/29 01:17:08;;;;;;;14.60;5.93;;;;;;;;;;5072466;28;20024;-76
2024/01/29 01:19:33;;;;;;;17.40;5.82;;;;;;;;;;5069921;28;20493;-76
2024/01/29 01:21:59;;;;;;;12.85;4.97;;;;;;;;;;5070460;28;20071;-76
2024/01/29 01:24:24;;;;;;;12.68;4.55;;;;;;;;;;5069855;28;20028;-76
2024/01/29 01:26:49;;;;;;;12.32;5.53;;;;;;;;;;5074421;28;20020;-76
2024/01/29 01:29:14;;;;;;;10.95;4.65;;;;;;;;;;5069669;28;20543;-76
2024/01/29 01:31:39;;;;;;;16.42;5.47;;;;;;;;;;5071816;28;20036;-76
2024/01/29 01:34:05;;;;;;;13.75;5.65;;;;;;;;;;5073363;28;20043;-76
2024/01/29 01:36:30;;;;;;;13.65;5.80;;;;;;;;;;5077932;28;20059;-76
2024/01/29 01:38:55;;;;;;;16.17;6.82;;;;;;;;;;5070938;28;20036;-76
2024/01/29 01:41:20;;;;;;;14.60;5.78;;;;;;;;;;5069523;28;20395;-76
2024/01/29 01:43:46;;;;;;;13.93;5.53;;;;;;;;;;5069836;28;20064;-76
2024/01/29 01:46:11;;;;;;;16.88;5.93;;;;;;;;;;5076380;28;20103;-76
2024/01/29 01:48:36;;;;;;;12.70;6.20;;;;;;;;;;5074183;28;20044;-76
2024/01/29 01:51:02;;;;;;;15.48;5.43;;;;;;;;;;5069468;28;20074;-76
2024/01/29 01:53:29;;;;;;;16.15;5.00;;;;;;;;;;5072607;28;20101;-76
2024/01/29 01:55:55;;;;;;;11.35;5.45;;;;;;;;;;5079671;28;20052;-76
2024/01/29 01:58:22;;;;;;;12.95;5.22;;;;;;;;;;5069682;28;20415;-76
2024/01/29 02:00:47;;;;;;;18.30;6.25;;;;;;;;;;5069345;28;20020;-76
2024/01/29 02:03:12;;;;;;;12.25;5.22;;;;;;;;;;5074712;28;20047;-76
2024/01/29 02:05:37;;;;;;;13.55;5.05;;;;;;;;;;5079204;28;20039;-76
2024/01/29 02:08:03;;;;;;;17.90;6.22;;;;;;;;;;5069763;28;20028;-76
2024/01/29 02:10:28;;;;;;;16.27;5.40;;;;;;;;;;5069208;28;20040;-76
2024/01/29 02:12:54;;;;;;;11.13;5.30;;;;;;;;;;5069631;28;20040;-76
2024/01/29 02:15:19;;;;;;;15.25;5.85;;;;;;;;;;5074429;28;20050;-76
2024/01/29 02:17:44;;;;;;;13.00;5.05;;;;;;;;;;5069615;28;20059;-76
2024/01/29 02:20:10;;;;;;;11.90;4.60;;;;;;;;;;5069076;28;20035;-75
2024/01/29 02:22:39;;;;;;;11.65;4.85;;;;;;;;;;5069601;28;20039;-76
2024/01/29 02:25:05;;;;;;;11.77;4.55;;;;;;;;;;5074214;28;20499;-76
2024/01/29 02:27:30;;;;;;;12.32;4.47;;;;;;;;;;5069324;28;20033;-76
2024/01/29 02:29:55;;;;;;;9.70;5.13;;;;;;;;;;5076467;28;20048;-76
2024/01/29 02:32:20;;;;;;;11.88;5.15;;;;;;;;;;5078037;28;20032;-76
2024/01/29 02:34:45;;;;;;;13.73;5.28;;;;;;;;;;5074960;28;20098;-76
2024/01/29 02:37:11;;;;;;;10.38;5.03;;;;;;;;;;5076052;28;20033;-76
2024/01/29 02:39:36;;;;;;;10.98;5.00;;;;;;;;;;5079023;28;20440;-76
2024/01/29 02:42:01;;;;;;;13.75;5.07;;;;;;;;;;5073065;28;20113;-76
2024/01/29 02:44:26;;;;;;;13.38;5.00;;;;;;;;;;5072883;28;20055;-76
2024/01/29 02:46:51;;;;;;;14.90;5.25;;;;;;;;;;5077220;28;20074;-76
2024/01/29 02:49:16;;;;;;;15.05;4.75;;;;;;;;;;5072588;28;20040;-76
2024/01/29 02:51:42;;;;;;;10.70;4.53;;;;;;;;;;5072891;28;20037;-76
2024/01/29 02:54:07;;;;;;;12.15;4.50;;;;;;;;;;5072556;28;20045;-76
2024/01/29 02:56:32;;;;;;;13.32;5.43;;;;;;;;;;5078390;28;20037;-76
2024/01/29 02:58:57;;;;;;;12.05;4.93;;;;;;;;;;5081521;28;20036;-76
2024/01/29 03:01:22;;;;;;;13.40;4.35;;;;;;;;;;5072315;28;20032;-76
2024/01/29 03:03:48;;;;;;;12.35;4.95;;;;;;;;;;5078633;28;20112;-76
2024/01/29 03:06:13;;;;;;;12.70;4.45;;;;;;;;;;5077108;28;20558;-76
2024/01/29 03:08:38;;;;;;;9.35;4.47;;;;;;;;;;5072757;28;20028;-76
2024/01/29 03:11:04;;;;;;;10.32;4.88;;;;;;;;;;5072210;28;20170;-76
2024/01/29 03:13:29;;;;;;;12.05;4.07;;;;;;;;;;5076131;28;20114;-76
2024/01/29 03:15:54;;;;;;;11.00;3.95;;;;;;;;;;5075927;28;20020;-76
2024/01/29 03:18:19;;;;;;;12.68;4.35;;;;;;;;;;5072222;28;20033;-76
2024/01/29 03:20:44;;;;;;;11.30;4.28;;;;;;;;;;5071929;28;20025;-76
2024/01/29 03:23:10;;;;;;;11.25;4.55;;;;;;;;;;5071622;28;20043;-76
2024/01/29 03:25:35;;;;;;;12.18;4.45;;;;;;;;;;5078927;28;20103;-76
2024/01/29 03:28:00;;;;;;;10.27;4.57;;;;;;;;;;5073046;28;20090;-76
2024/01/29 03:30:26;;;;;;;12.23;3.77;;;;;;;;;;5071467;28;20428;-76
2024/01/29 03:32:55;;;;;;;12.50;4.90;;;;;;;;;;5077793;28;20039;-76
2024/01/29 03:35:21;;;;;;;14.07;4.50;;;;;;;;;;5078886;28;20043;-76
2024/01/29 03:37:46;;;;;;;12.17;4.73;;;;;;;;;;5071994;28;20036;-76
2024/01/29 03:40:11;;;;;;;12.00;4.30;;;;;;;;;;5071052;28;20050;-76
2024/01/29 03:42:37;;;;;;;11.97;4.40;;;;;;;;;;5082999;28;20073;-76
2024/01/29 03:45:02;;;;;;;10.60;4.67;;;;;;;;;;5077596;28;20036;-76
2024/01/29 03:47:27;;;;;;;10.98;4.70;;;;;;;;;;5072425;28;20116;-76
2024/01/29 03:49:52;;;;;;;14.63;3.87;;;;;;;;;;5073731;28;20036;-76
2024/01/29 03:52:18;;;;;;;9.73;4.03;;;;;;;;;;5073049;28;20047;-76
2024/01/29 03:54:43;;;;;;;13.30;5.67;;;;;;;;;;5070598;28;20029;-76
2024/01/29 03:57:08;;;;;;;11.43;4.87;;;;;;;;;;5080991;28;20028;-76
2024/01/29 03:59:34;;;;;;;12.17;4.43;;;;;;;;;;5075417;28;20115;-76
2024/01/29 04:02:00;;;;;;;15.13;5.27;;;;;;;;;;5074584;28;20038;-76
2024/01/29 04:04:25;;;;;;;11.60;3.80;;;;;;;;;;5072259;28;20033;-76
2024/01/29 04:06:52;;;;;;;13.80;4.73;;;;;;;;;;5075141;28;20416;-76
2024/01/29 04:09:21;;;;;;;11.23;4.37;;;;;;;;;;5069705;28;20032;-76
2024/01/29 04:11:46;;;;;;;10.57;4.13;;;;;;;;;;5071290;28;20044;-76
2024/01/29 04:14:11;;;;;;;9.73;3.77;;;;;;;;;;5070829;28;20036;-76
2024/01/29 04:16:37;;;;;;;9.37;4.40;;;;;;;;;;5076117;28;20074;-77
2024/01/29 04:19:02;;;;;;;10.23;4.10;;;;;;;;;;5070564;28;20060;-76
2024/01/29 04:21:27;;;;;;;9.13;3.70;;;;;;;;;;5074291;28;20032;-76
2024/01/29 04:23:52;;;;;;;9.80;3.60;;;;;;;;;;5070799;28;20028;-76
2024/01/29 04:26:18;;;;;;;7.80;2.87;;;;;;;;;;5073974;28;20408;-76
2024/01/29 04:28:43;;;;;;;11.27;4.83;;;;;;;;;;5071093;28;20036;-76
2024/01/29 04:31:08;;;;;;;11.73;3.70;;;;;;;;;;5080729;28;20023;-76
2024/01/29 04:33:33;;;;;;;8.03;3.60;;;;;;;;;;5076325;28;20504;-76
2024/01/29 04:35:58;;;;;;;10.83;3.70;;;;;;;;;;5074119;28;20036;-76
2024/01/29 04:38:23;;;;;;;8.67;3.57;;;;;;;;;;5070737;28;20064;-76
2024/01/29 04:40:49;;;;;;;8.93;3.93;;;;;;;;;;5070253;28;20396;-76
2024/01/29 04:43:14;;;;;;;9.43;3.93;;;;;;;;;;5070407;28;20060;-76
2024/01/29 04:45:39;;;;;;;12.83;3.90;;;;;;;;;;5074946;28;20469;-76
2024/01/29 04:48:04;;;;;;;11.13;4.00;;;;;;;;;;5070598;28;20036;-76
2024/01/29 04:50:29;;;;;;;11.77;3.97;;;;;;;;;;5070262;28;20032;-76
2024/01/29 04:52:55;;;;;;;12.03;4.30;;;;;;;;;;5069770;28;20032;-76
2024/01/29 04:55:20;;;;;;;9.87;4.23;;;;;;;;;;5075147;28;20024;-76
2024/01/29 04:57:45;;;;;;;7.90;3.40;;;;;;;;;;5073622;28;20070;-76
2024/01/29 05:00:11;;;;;;;9.80;4.23;;;;;;;;;;5071413;28;20020;-76
2024/01/29 05:02:36;;;;;;;8.32;3.75;;;;;;;;;;5078691;28;20029;-76
2024/01/29 05:05:02;;;;;;;9.97;4.03;;;;;;;;;;5072035;28;20033;-76
2024/01/29 05:07:27;;;;;;;10.13;4.23;;;;;;;;;;5077259;28;20382;-76
2024/01/29 05:09:52;;;;;;;14.37;4.67;;;;;;;;;;5072495;28;20048;-76
2024/01/29 05:12:17;;;;;;;11.07;4.00;;;;;;;;;;5070352;28;20036;-76
2024/01/29 05:14:43;;;;;;;12.87;4.67;;;;;;;;;;5077149;28;20028;-76
2024/01/29 05:17:09;;;;;;;12.77;3.93;;;;;;;;;;5071681;28;20047;-76
2024/01/29 05:19:34;;;;;;;11.47;3.97;;;;;;;;;;5077725;28;20032;-76
2024/01/29 05:22:01;;;;;;;11.50;4.10;;;;;;;;;;5070425;28;20058;-78
2024/01/29 05:24:26;;;;;;;8.67;3.90;;;;;;;;;;5068992;28;20037;-77
2024/01/29 05:26:52;;;;;;;9.03;3.83;;;;;;;;;;5073473;28;20081;-77
2024/01/29 05:29:17;;;;;;;18.00;7.40;;;;;;;;;;5070161;28;20632;-77
2024/01/29 05:31:42;;;;;;;26.60;12.30;;;;;;;;;;5072861;28;20032;-77
2024/01/29 05:34:07;;;;;;;15.73;7.03;;;;;;;;;;5073506;28;20029;-77
2024/01/29 05:36:32;;;;;;;12.77;5.73;;;;;;;;;;5072958;28;20442;-76
2024/01/29 05:38:57;;;;;;;12.00;5.57;;;;;;;;;;5071327;28;20041;-75
2024/01/29 05:41:23;;;;;;;11.37;5.03;;;;;;;;;;5071228;28;20510;-76
2024/01/29 05:43:48;;;;;;;10.20;4.43;;;;;;;;;;5069822;28;20021;-76
2024/01/29 05:46:13;;;;;;;11.47;4.20;;;;;;;;;;5072243;28;20056;-76
2024/01/29 05:48:38;;;;;;;9.97;4.23;;;;;;;;;;5072574;28;20035;-76
2024/01/29 05:51:03;;;;;;;12.23;4.30;;;;;;;;;;5075367;28;20040;-76
2024/01/29 05:53:29;;;;;;;9.93;4.70;;;;;;;;;;5074679;28;20386;-76
2024/01/29 05:55:54;;;;;;;14.70;5.90;;;;;;;;;;5073936;28;20036;-76
2024/01/29 05:58:19;;;;;;;12.90;5.57;;;;;;;;;;5072918;28;20081;-76
2024/01/29 06:00:45;;;;;;;11.97;5.50;;;;;;;;;;5077693;28;20099;-76
2024/01/29 06:03:11;;;;;;;15.00;5.50;;;;;;;;;;5081046;28;20092;-76
2024/01/29 06:05:36;;;;;;;15.17;6.23;;;;;;;;;;5081289;28;20024;-76
2024/01/29 06:08:01;;;;;;;14.13;4.60;;;;;;;;;;5073854;28;20413;-76
2024/01/29 06:10:26;;;;;;;11.60;4.57;;;;;;;;;;5073115;28;20032;-75
2024/01/29 06:12:53;;;;;;;11.97;5.03;;;;;;;;;;5073518;28;20036;-76
2024/01/29 06:15:18;;;;;;;14.33;5.40;;;;;;;;;;5075103;28;20040;-76
2024/01/29 06:17:43;;;;;;;11.77;5.07;;;;;;;;;;5073664;28;20035;-76
2024/01/29 06:20:09;;;;;;;11.40;5.20;;;;;;;;;;5079421;28;20052;-75
2024/01/29 06:22:35;;;;;;;14.63;5.03;;;;;;;;;;5077475;28;20107;-75
2024/01/29 06:25:00;;;;;;;12.47;4.80;;;;;;;;;;5075465;28;20103;-76
2024/01/29 06:27:25;;;;;;;9.80;4.50;;;;;;;;;;5074956;28;20037;-76
2024/01/29 06:29:50;;;;;;;13.70;5.33;;;;;;;;;;5078290;28;20057;-76
2024/01/29 06:32:15;;;;;;;14.97;4.80;;;;;;;;;;5079304;28;20044;-76
2024/01/29 06:34:40;;;;;;;10.53;5.13;;;;;;;;;;5072976;28;20040;-76
2024/01/29 06:37:06;;;;;;;14.60;5.73;;;;;;;;;;5074854;28;20032;-76
2024/01/29 06:39:32;;;;;;;9.53;4.53;;;;;;;;;;5076415;28;20024;-76
2024/01/29 06:41:57;;;;;;;15.10;5.97;;;;;;;;;;5079489;28;20031;-76
2024/01/29 06:44:22;;;;;;;17.13;7.63;;;;;;;;;;5072618;28;20123;-76
2024/01/29 06:46:48;;;;;;;19.83;7.80;;;;;;;;;;5076996;28;20086;-76
2024/01/29 06:49:24;;;;;;;26.00;9.57;;;;;;;;;;5072351;28;20513;-76
2024/01/29 06:51:49;;;;;;;24.27;8.43;;;;;;;;;;5075811;28;20618;-76
2024/01/29 06:54:15;;;;;;;13.97;6.90;;;;;;;;;;5073896;28;20036;-76
2024/01/29 06:56:40;;;;;;;24.17;9.33;;;;;;;;;;5084102;28;20036;-76
2024/01/29 06:59:05;;;;;;;13.77;6.63;;;;;;;;;;5075931;28;20045;-76
2024/01/29 07:01:32;;;;;;;15.60;5.90;;;;;;;;;;5077863;28;20028;-76
2024/01/29 07:03:57;;;;;;;13.20;5.70;;;;;;;;;;5084045;28;20029;-76
2024/01/29 07:06:23;;;;;;;10.50;4.93;;;;;;;;;;5077253;28;20027;-76
2024/01/29 07:08:49;;;;;;;11.40;5.37;;;;;;;;;;5076630;28;20040;-76
2024/01/29 07:11:15;;;;;;;11.03;4.97;;;;;;;;;;5072737;28;20396;-76
2024/01/29 07:13:44;;;;;;;10.53;4.67;;;;;;;;;;5076198;28;20035;-77
2024/01/29 07:16:10;;;;;;;12.17;4.77;;;;;;;;;;5075548;28;20029;-76
2024/01/29 07:18:36;;;;;;;10.90;4.60;;;;;;;;;;5075642;28;20107;-76
2024/01/29 07:21:02;;;;;;;12.43;4.97;;;;;;;;;;5072450;28;20488;-76
2024/01/29 07:23:28;;;;;;;11.27;4.40;;;;;;;;;;5072052;28;20052;-76
2024/01/29 07:25:53;;;;;;;9.87;3.70;;;;;;;;;;5076487;28;20024;-76
2024/01/29 07:28:18;;;;;;;11.23;4.73;;;;;;;;;;5072145;28;20044;-76
2024/01/29 07:30:43;;;;;;;11.90;5.13;;;;;;;;;;5075147;28;20081;-75
2024/01/29 07:33:09;;;;;;;14.23;5.05;;;;;;;;;;5072101;28;20531;-76
2024/01/29 07:35:34;;;;;;;13.15;5.82;;;;;;;;;;5073253;28;20082;-76
2024/01/29 07:37:59;;;;;;;11.52;5.38;;;;;;;;;;5071904;28;20382;-76
2024/01/29 07:40:25;;;;;;;10.68;4.80;;;;;;;;;;5072491;28;20031;-77
2024/01/29 07:42:50;;;;;;;10.10;5.38;;;;;;;;;;5071235;28;20032;-76
2024/01/29 07:45:15;;;;;;;12.23;4.75;;;;;;;;;;5075454;28;20044;-77
2024/01/29 07:47:41;;;;;;;9.80;4.68;;;;;;;;;;5072277;28;20043;-76
2024/01/29 07:50:06;;;;;;;11.35;4.90;;;;;;;;;;5069908;28;20028;-76
2024/01/29 07:52:31;;;;;;;14.45;5.82;;;;;;;;;;5070406;28;20036;-76
2024/01/29 07:54:56;;;;;;;9.68;5.10;;;;;;;;;;5070293;28;20093;-76
2024/01/29 07:57:21;;;;;;;12.93;5.38;;;;;;;;;;5071497;28;20035;-77
2024/01/29 07:59:47;;;;;;;11.50;5.28;;;;;;;;;;5078161;28;20044;-76
2024/01/29 08:02:12;;;;;;;12.73;4.93;;;;;;;;;;5078544;28;20058;-76
2024/01/29 08:04:37;;;;;;;12.05;5.95;;;;;;;;;;5071650;28;20028;-76
2024/01/29 08:07:02;;;;;;;15.45;5.93;;;;;;;;;;5071834;28;20052;-76
2024/01/29 08:09:28;;;;;;;13.20;5.97;;;;;;;;;;5073502;28;20069;-76
2024/01/29 08:11:53;;;;;;;9.70;5.15;;;;;;;;;;5076255;28;20033;-76
2024/01/29 08:14:18;;;;;;;9.38;4.47;;;;;;;;;;5076743;28;20036;-76
2024/01/29 08:16:43;;;;;;;10.55;5.75;;;;;;;;;;5071544;28;20519;-76
2024/01/29 08:19:08;;;;;;;11.00;4.43;;;;;;;;;;5070873;28;20530;-76
2024/01/29 08:21:34;;;;;;;11.95;5.07;;;;;;;;;;5070875;28;20033;-77
2024/01/29 08:23:59;;;;;;;12.55;5.97;;;;;;;;;;5073964;28;20036;-76
2024/01/29 08:26:24;;;;;;;11.40;4.90;;;;;;;;;;5077949;28;20036;-76
2024/01/29 08:28:49;;;;;;;13.10;4.90;;;;;;;;;;5074323;28;20067;-76
2024/01/29 08:31:14;;;;;;;9.05;4.97;;;;;;;;;;5079170;28;20436;-76
2024/01/29 08:33:42;;;;;;;11.82;5.20;;;;;;;;;;5079744;28;20040;-76
2024/01/29 08:36:07;;;;;;;13.05;5.72;;;;;;;;;;5078053;28;20035;-77
2024/01/29 08:38:32;;;;;;;10.88;5.18;;;;;;;;;;5073189;28;20103;-76
2024/01/29 08:40:57;;;;;;;11.32;5.15;;;;;;;;;;5076595;28;20025;-76
2024/01/29 08:43:23;;;;;;;11.60;4.75;;;;;;;;;;5075029;28;20031;-76
2024/01/29 08:45:49;;;;;;;10.85;4.75;;;;;;;;;;5077017;28;20024;-76
2024/01/29 08:48:14;;;;;;;11.25;4.70;;;;;;;;;;5077679;28;20036;-76
2024/01/29 08:50:39;;;;;;;11.30;4.82;;;;;;;;;;5077951;28;20527;-77
2024/01/29 08:53:04;;;;;;;12.48;4.28;;;;;;;;;;5074400;28;20044;-77
2024/01/29 08:55:33;;;;;;;11.73;5.68;;;;;;;;;;5072493;28;20756;-76
2024/01/29 08:57:58;;;;;;;11.73;5.43;;;;;;;;;;5075710;28;20032;-76
2024/01/29 09:00:23;;;;;;;10.82;5.70;;;;;;;;;;5072171;28;20031;-76
2024/01/29 09:02:51;;;;;;;8.98;4.55;;;;;;;;;;5076170;28;20484;-76
2024/01/29 09:05:17;;;;;;;11.70;5.50;;;;;;;;;;5070059;28;20044;-76
2024/01/29 09:07:42;;;;;;;11.57;5.32;;;;;;;;;;5076404;28;20033;-77
2024/01/29 09:10:08;;;;;;;13.57;5.40;;;;;;;;;;5070112;28;20424;-76
2024/01/29 09:12:33;;;;;;;10.45;4.80;;;;;;;;;;5071568;28;20100;-76
2024/01/29 09:14:58;;;;;;;12.30;5.03;;;;;;;;;;5068874;28;20036;-76
2024/01/29 09:17:23;;;;;;;9.48;4.30;;;;;;;;;;5077034;28;20404;-76
2024/01/29 09:19:51;;;;;;;8.52;4.40;;;;;;;;;;5071864;28;20488;-76
2024/01/29 09:22:16;;;;;;;8.80;4.25;;;;;;;;;;5071967;28;20071;-77
2024/01/29 09:24:42;;;;;;;10.38;5.35;;;;;;;;;;5071015;28;20048;-77
2024/01/29 09:27:07;;;;;;;9.40;4.72;;;;;;;;;;5078141;28;20040;-76
2024/01/29 09:29:32;;;;;;;12.55;5.57;;;;;;;;;;5074911;28;20039;-76
2024/01/29 09:32:00;;;;;;;9.48;4.93;;;;;;;;;;5081426;28;20069;-77
2024/01/29 09:34:27;;;;;;;9.30;4.80;;;;;;;;;;5075048;28;20040;-77
2024/01/29 09:36:52;;;;;;;8.57;4.22;;;;;;;;;;5077958;28;20032;-77
2024/01/29 09:39:18;;;;;;;9.95;4.63;;;;;;;;;;5077854;28;20359;-76
2024/01/29 09:41:43;;;;;;;9.93;5.10;;;;;;;;;;5074165;28;20024;-77
2024/01/29 09:44:09;;;;;;;10.32;4.47;;;;;;;;;;5069820;28;20029;-76
2024/01/29 09:46:37;;;;;;;11.43;4.80;;;;;;;;;;5074629;28;20481;-76
2024/01/29 09:49:02;;;;;;;9.57;5.15;;;;;;;;;;5069510;28;20032;-77
2024/01/29 09:51:28;;;;;;;10.25;4.80;;;;;;;;;;5069723;28;20503;-77
2024/01/29 09:53:54;;;;;;;8.90;4.90;;;;;;;;;;5069798;28;20033;-77
2024/01/29 09:56:19;;;;;;;10.38;4.65;;;;;;;;;;5076939;28;20081;-77
2024/01/29 09:58:44;;;;;;;10.20;4.50;;;;;;;;;;5077886;28;20036;-77
2024/01/29 10:01:10;;;;;;;10.80;4.60;;;;;;;;;;5072549;28;20047;-77
2024/01/29 10:03:37;;;;;;;9.65;5.03;;;;;;;;;;5074539;28;20033;-77
2024/01/29 10:06:03;;;;;;;10.60;4.40;;;;;;;;;;5076210;28;20031;-77
2024/01/29 10:08:29;;;;;;;10.75;4.35;;;;;;;;;;5071689;28;20036;-76
2024/01/29 10:10:57;;;;;;;10.52;5.07;;;;;;;;;;5072888;28;20037;-77
2024/01/29 10:13:23;;;;;;;8.68;3.83;;;;;;;;;;5073460;28;20086;-77
2024/01/29 10:15:49;;;;;;;8.70;4.53;;;;;;;;;;5076827;28;20048;-76
2024/01/29 10:18:16;;;;;;;11.48;4.20;;;;;;;;;;5071074;28;20401;-77
2024/01/29 10:20:41;;;;;;;9.23;4.65;;;;;;;;;;5072116;28;20029;-77
2024/01/29 10:23:06;;;;;;;9.88;4.38;;;;;;;;;;5069557;28;20035;-77
2024/01/29 10:25:34;;;;;;;9.95;4.60;;;;;;;;;;5069505;28;20373;-77
2024/01/29 10:28:10;;;;;;;9.98;4.20;;;;;;;;;;5077366;28;20040;-77
2024/01/29 10:30:36;;;;;;;9.38;3.75;;;;;;;;;;5081250;28;20052;-77
2024/01/29 10:33:01;;;;;;;9.68;3.88;;;;;;;;;;5076722;28;20025;-77
2024/01/29 10:35:26;;;;;;;7.53;3.53;;;;;;;;;;5070755;28;20496;-77
2024/01/29 10:37:55;;;;;;;6.93;3.50;;;;;;;;;;5080853;28;20040;-77
2024/01/29 10:40:21;;;;;;;8.60;3.60;;;;;;;;;;5073405;28;20043;-76
2024/01/29 10:42:48;;;;;;;10.30;4.13;;;;;;;;;;5069534;28;20028;-77
2024/01/29 10:45:14;;;;;;;8.30;3.47;;;;;;;;;;5068774;28;20039;-77
2024/01/29 10:47:43;;;;;;;8.27;2.95;;;;;;;;;;5074700;28;20485;-77
2024/01/29 10:50:08;;;;;;;9.65;3.88;;;;;;;;;;5070462;28;20048;-77
2024/01/29 10:52:34;;;;;;;8.57;4.05;;;;;;;;;;5073703;28;20040;-76
2024/01/29 10:54:59;;;;;;;9.13;4.05;;;;;;;;;;5073468;28;20392;-77
2024/01/29 10:57:25;;;;;;;9.23;3.75;;;;;;;;;;5078540;28;20047;-78
2024/01/29 10:59:51;;;;;;;9.68;4.07;;;;;;;;;;5079769;28;20378;-78
2024/01/29 11:02:16;;;;;;;7.72;4.32;;;;;;;;;;5083272;28;20061;-78
2024/01/29 11:04:42;;;;;;;8.27;3.50;;;;;;;;;;5080060;28;20029;-77
2024/01/29 11:07:26;;;;;;;12.20;4.38;;;;;;;;;;5085628;28;20040;-78
2024/01/29 11:09:54;;;;;;;8.48;3.50;;;;;;;;;;5086383;28;20036;-78
2024/01/29 11:12:20;;;;;;;8.63;3.78;;;;;;;;;;5074007;28;20028;-77
2024/01/29 11:14:55;;;;;;;8.32;3.85;;;;;;;;;;5078318;28;20465;-77
2024/01/29 11:17:21;;;;;;;11.82;4.53;;;;;;;;;;5081066;28;20063;-78
2024/01/29 11:19:50;;;;;;;7.85;3.42;;;;;;;;;;5073343;28;20076;-78
2024/01/29 11:22:15;;;;;;;5.88;3.15;;;;;;;;;;5074179;28;20090;-78
2024/01/29 11:24:41;;;;;;;6.05;2.95;;;;;;;;;;5073969;28;20032;-78
2024/01/29 11:27:07;;;;;;;7.72;3.75;;;;;;;;;;5078607;28;20102;-77
2024/01/29 11:29:37;;;;;;;11.48;5.22;;;;;;;;;;5072470;28;20044;-78
2024/01/29 11:32:04;;;;;;;9.10;4.47;;;;;;;;;;5079412;28;20040;-78
2024/01/29 11:34:29;;;;;;;8.73;3.63;;;;;;;;;;5081047;28;20036;-78
2024/01/29 11:36:55;;;;;;;8.60;3.15;;;;;;;;;;5078266;28;20032;-78
2024/01/29 11:39:24;;;;;;;7.25;3.50;;;;;;;;;;5073666;28;20420;-78
2024/01/29 11:41:50;;;;;;;7.32;3.15;;;;;;;;;;5063887;28;20077;-78
2024/01/29 11:44:19;;;;;;;7.47;3.33;;;;;;;;;;5074013;28;20481;-78
2024/01/29 11:46:44;;;;;;;6.00;3.28;;;;;;;;;;5088441;28;20400;-79
2024/01/29 11:49:09;;;;;;;6.70;3.30;;;;;;;;;;5075524;28;20032;-78
2024/01/29 11:51:35;;;;;;;8.00;3.15;;;;;;;;;;5057734;28;20025;-78
2024/01/29 11:54:00;;;;;;;7.18;3.60;;;;;;;;;;5072549;28;20439;-78
2024/01/29 11:56:25;;;;;;;7.15;3.50;;;;;;;;;;5080075;28;20051;-78
2024/01/29 11:59:01;;;;;;;6.55;2.95;;;;;;;;;;5072890;28;20025;-79
2024/01/29 12:01:26;;;;;;;7.55;3.80;;;;;;;;;;5053557;28;20033;-76
2024/01/29 12:03:52;;;;;;;7.47;3.70;;;;;;;;;;5085523;28;20033;-76
2024/01/29 12:06:17;;;;;;;6.78;3.40;;;;;;;;;;5077532;28;20374;-77
2024/01/29 12:08:47;;;;;;;7.18;3.40;;;;;;;;;;5071623;28;20028;-77
2024/01/29 12:11:14;;;;;;;7.47;3.67;;;;;;;;;;5076259;28;20036;-77
2024/01/29 12:13:40;;;;;;;7.32;3.50;;;;;;;;;;5076173;28;20036;-77
2024/01/29 12:16:05;;;;;;;6.32;2.80;;;;;;;;;;5079573;28;20028;-76
2024/01/29 12:18:38;;;;;;;7.65;2.60;;;;;;;;;;5081420;28;20062;-77
2024/01/29 12:21:06;;;;;;;6.25;2.80;;;;;;;;;;5073713;28;20033;-76
2024/01/29 12:23:32;;;;;;;5.70;2.95;;;;;;;;;;5077295;28;20051;-76
2024/01/29 12:25:57;;;;;;;7.72;3.42;;;;;;;;;;5075551;28;20021;-76
2024/01/29 12:28:25;;;;;;;7.35;2.72;;;;;;;;;;5074508;28;20033;-77
2024/01/29 12:30:55;;;;;;;10.23;3.70;;;;;;;;;;5071426;28;20047;-77
2024/01/29 12:33:29;;;;;;;11.35;3.38;;;;;;;;;;5084102;28;20122;-76
2024/01/29 12:35:58;;;;;;;11.07;3.97;;;;;;;;;;5076006;28;20404;-77
2024/01/29 12:38:23;;;;;;;8.13;3.78;;;;;;;;;;5076152;28;20040;-76
2024/01/29 12:40:53;;;;;;;11.40;3.72;;;;;;;;;;5077015;28;20155;-76
2024/01/29 12:43:24;;;;;;;7.50;3.20;;;;;;;;;;5071148;28;20024;-77
2024/01/29 12:45:49;;;;;;;7.97;3.38;;;;;;;;;;5076136;28;20476;-77
2024/01/29 12:48:19;;;;;;;5.77;2.70;;;;;;;;;;5075022;28;20080;-77
2024/01/29 12:50:44;;;;;;;8.73;3.35;;;;;;;;;;5076791;28;20331;-77
2024/01/29 12:53:12;;;;;;;12.25;4.75;;;;;;;;;;5073980;28;20028;-77
2024/01/29 12:55:42;;;;;;;7.97;3.50;;;;;;;;;;5069628;28;20506;-77
2024/01/29 12:58:07;;;;;;;7.00;3.28;;;;;;;;;;5075490;28;20577;-77
2024/01/29 13:00:32;;;;;;;7.10;2.63;;;;;;;;;;5070520;28;20064;-77
2024/01/29 13:02:57;;;;;;;8.15;3.17;;;;;;;;;;5076026;28;20118;-77
2024/01/29 13:05:23;;;;;;;6.90;3.07;;;;;;;;;;5070232;28;20409;-77
2024/01/29 13:07:48;;;;;;;9.27;3.33;;;;;;;;;;5075428;28;20365;-76
2024/01/29 13:10:13;;;;;;;6.72;3.17;;;;;;;;;;5078996;28;20147;-77
2024/01/29 13:12:39;;;;;;;9.07;3.22;;;;;;;;;;5078068;28;20039;-76
2024/01/29 13:15:04;;;;;;;6.60;2.92;;;;;;;;;;5075092;28;20091;-77
2024/01/29 13:17:29;;;;;;;6.68;3.17;;;;;;;;;;5078767;28;20056;-77
2024/01/29 13:19:55;;;;;;;7.83;3.23;;;;;;;;;;5072700;28;20036;-77
2024/01/29 13:22:21;;;;;;;5.70;2.60;;;;;;;;;;5069975;28;20285;-76
2024/01/29 13:24:46;;;;;;;8.40;3.95;;;;;;;;;;5073188;28;20040;-76
2024/01/29 13:27:11;;;;;;;8.48;3.58;;;;;;;;;;5074953;28;20035;-77
2024/01/29 13:29:37;;;;;;;11.13;3.38;;;;;;;;;;5069699;28;20068;-77
2024/01/29 13:32:02;;;;;;;7.45;3.03;;;;;;;;;;5074827;28;20506;-77
2024/01/29 13:34:27;;;;;;;7.53;3.40;;;;;;;;;;5075379;28;20086;-77
2024/01/29 13:36:52;;;;;;;6.53;3.45;;;;;;;;;;5075015;28;20040;-77
2024/01/29 13:39:18;;;;;;;7.23;3.20;;;;;;;;;;5065530;28;20119;-77
2024/01/29 13:41:44;;;;;;;6.53;3.03;;;;;;;;;;5069816;28;20289;-77
2024/01/29 13:44:09;;;;;;;5.10;2.60;;;;;;;;;;5070020;28;20119;-76
2024/01/29 13:46:34;;;;;;;6.57;2.50;;;;;;;;;;5074273;28;20111;-77
2024/01/29 13:49:00;;;;;;;7.97;3.43;;;;;;;;;;5069605;28;20086;-76
2024/01/29 13:51:25;;;;;;;8.40;3.78;;;;;;;;;;5070086;28;20279;-76
2024/01/29 13:53:50;;;;;;;7.73;3.53;;;;;;;;;;5069786;28;20040;-77
2024/01/29 13:56:15;;;;;;;7.63;2.90;;;;;;;;;;5073397;28;20407;-76
2024/01/29 13:58:41;;;;;;;4.57;2.40;;;;;;;;;;5077019;28;20024;-76
2024/01/29 14:01:06;;;;;;;6.38;2.65;;;;;;;;;;5069641;28;20763;-77
2024/01/29 14:03:31;;;;;;;6.72;3.15;;;;;;;;;;5072344;28;20036;-77
2024/01/29 14:05:58;;;;;;;10.07;3.05;;;;;;;;;;5077648;28;20036;-77
2024/01/29 14:08:23;;;;;;;7.20;2.95;;;;;;;;;;5072522;28;20036;-77
2024/01/29 14:10:48;;;;;;;6.43;3.33;;;;;;;;;;5069685;28;20458;-77
2024/01/29 14:13:15;;;;;;;5.88;3.08;;;;;;;;;;5069681;28;20366;-77
2024/01/29 14:15:41;;;;;;;5.75;2.72;;;;;;;;;;5068635;28;20048;-77
2024/01/29 14:18:06;;;;;;;9.50;3.03;;;;;;;;;;5073833;28;20032;-77
2024/01/29 14:20:31;;;;;;;5.78;3.08;;;;;;;;;;5069306;28;20354;-77
2024/01/29 14:22:57;;;;;;;5.93;3.03;;;;;;;;;;5069926;28;20032;-77
2024/01/29 14:25:23;;;;;;;7.35;3.15;;;;;;;;;;5072937;28;20107;-77
2024/01/29 14:27:48;;;;;;;6.90;3.15;;;;;;;;;;5077553;28;20135;-77